Time;durP1;ratioP1;P1;durP2;ratioP2;P2;SDS_P1;SDS_P2;PMS_P1;PMS_P2;Temp;Humidity;BMP_temperature;BMP_pressure;BME280_temperature;BME280_humidity;BME280_pressure;Samples;Min_cycle;Max_cycle;Signal;HPM_P1;HPM_P2
2021/12/11 00:00:18;;;;;;;17.50;14.03;;;5.00;99.90;;;;;;6226513;23;20237;-75
2021/12/11 00:02:54;;;;;;;15.97;14.27;;;5.00;99.90;;;;;;6217462;23;20175;-80
2021/12/11 00:05:22;;;;;;;16.70;14.17;;;4.90;99.90;;;;;;6216931;23;20168;-75
2021/12/11 00:07:48;;;;;;;17.20;13.23;;;4.90;99.90;;;;;;6215771;23;20617;-75
2021/12/11 00:10:24;;;;;;;16.37;13.40;;;4.80;99.90;;;;;;6215573;23;20167;-75
2021/12/11 00:12:56;;;;;;;17.20;13.17;;;4.90;99.90;;;;;;6215843;23;20169;-75
2021/12/11 00:15:27;;;;;;;17.03;13.93;;;4.90;99.90;;;;;;6215890;23;20195;-74
2021/12/11 00:17:57;;;;;;;18.43;13.87;;;5.10;99.90;;;;;;6215702;23;20166;-74
2021/12/11 00:20:30;;;;;;;19.50;13.77;;;5.00;99.90;;;;;;6215988;23;20170;-74
2021/12/11 00:22:58;;;;;;;20.20;12.90;;;4.70;99.90;;;;;;6214895;23;20236;-74
2021/12/11 00:25:29;;;;;;;17.23;13.30;;;4.80;99.90;;;;;;6215636;23;20185;-74
2021/12/11 00:28:03;;;;;;;20.90;18.48;;;4.80;99.90;;;;;;6214764;23;20398;-75
2021/12/11 00:30:41;;;;;;;20.63;15.63;;;4.90;99.90;;;;;;6214674;23;20480;-73
2021/12/11 00:33:11;;;;;;;19.40;13.43;;;4.80;99.90;;;;;;6215344;23;20508;-74
2021/12/11 00:35:39;;;;;;;15.50;12.43;;;5.00;99.90;;;;;;6215276;23;20221;-74
2021/12/11 00:38:10;;;;;;;16.23;12.77;;;5.10;99.90;;;;;;6215141;23;20622;-75
2021/12/11 00:40:40;;;;;;;18.43;11.80;;;5.20;99.90;;;;;;6215780;23;20262;-74
2021/12/11 00:43:11;;;;;;;17.40;10.97;;;5.20;99.90;;;;;;6215386;23;20173;-77
2021/12/11 00:45:41;;;;;;;12.33;8.07;;;5.30;99.90;;;;;;6215582;23;20178;-74
2021/12/11 00:48:11;;;;;;;11.83;7.07;;;5.40;99.90;;;;;;6215233;23;20539;-75
2021/12/11 00:50:44;;;;;;;9.20;4.43;;;5.50;99.90;;;;;;6214399;23;20162;-74
2021/12/11 00:53:13;;;;;;;10.73;2.97;;;5.60;99.90;;;;;;6215640;23;20253;-75
2021/12/11 00:55:45;;;;;;;8.13;3.37;;;5.60;99.90;;;;;;6214951;23;20198;-74
2021/12/11 00:58:15;;;;;;;8.63;2.77;;;5.60;99.90;;;;;;6215031;23;20594;-73
2021/12/11 01:00:48;;;;;;;4.40;2.17;;;5.60;99.90;;;;;;6214730;23;20163;-75
2021/12/11 01:03:19;;;;;;;7.00;1.73;;;5.70;99.90;;;;;;6215402;23;20163;-74
2021/12/11 01:05:50;;;;;;;6.37;1.83;;;5.80;99.90;;;;;;6214766;23;20183;-76
2021/12/11 01:08:27;;;;;;;4.93;1.30;;;5.70;99.90;;;;;;6215160;23;20163;-74
2021/12/11 01:11:05;;;;;;;6.33;1.23;;;5.70;99.90;;;;;;6214836;23;20647;-76
2021/12/11 01:13:34;;;;;;;5.20;1.13;;;5.60;99.90;;;;;;6215296;23;20162;-75
2021/12/11 01:16:06;;;;;;;6.40;1.98;;;5.70;99.90;;;;;;6213157;23;20411;-76
2021/12/11 01:18:36;;;;;;;7.70;1.47;;;5.80;99.90;;;;;;6215095;23;20183;-75
2021/12/11 01:21:25;;;;;;;7.27;1.90;;;5.80;99.90;;;;;;6214190;23;20261;-77
2021/12/11 01:24:09;;;;;;;6.20;1.50;;;5.70;99.90;;;;;;6214679;23;20166;-76
2021/12/11 01:26:41;;;;;;;8.47;2.20;;;5.80;99.90;;;;;;6214477;23;20170;-75
2021/12/11 01:29:09;;;;;;;5.67;1.90;;;5.70;99.90;;;;;;6214180;23;20661;-75
2021/12/11 01:31:36;;;;;;;10.47;2.23;;;5.70;99.90;;;;;;6214472;23;20169;-74
2021/12/11 01:34:04;;;;;;;10.70;2.53;;;5.80;99.90;;;;;;6214765;23;20163;-75
2021/12/11 01:36:31;;;;;;;8.90;2.20;;;5.80;99.90;;;;;;6214979;23;20213;-75
2021/12/11 01:39:01;;;;;;;7.67;1.83;;;5.70;99.90;;;;;;6215117;23;20527;-77
2021/12/11 01:41:30;;;;;;;10.53;1.57;;;5.80;99.90;;;;;;6215253;23;20173;-73
2021/12/11 01:44:03;;;;;;;7.63;1.67;;;5.80;99.90;;;;;;6215003;23;20200;-74
2021/12/11 01:46:30;;;;;;;3.97;1.43;;;5.80;99.90;;;;;;6214578;23;20479;-75
2021/12/11 01:49:01;;;;;;;6.67;1.10;;;5.80;99.90;;;;;;6214578;23;20163;-74
2021/12/11 01:51:32;;;;;;;4.20;1.30;;;5.90;99.90;;;;;;6214418;23;20186;-75
2021/12/11 01:54:03;;;;;;;5.67;1.23;;;5.80;99.90;;;;;;6214981;23;20219;-74
2021/12/11 01:56:33;;;;;;;3.10;1.20;;;5.80;99.90;;;;;;6214698;23;20203;-76
2021/12/11 01:59:05;;;;;;;7.00;1.87;;;5.90;99.90;;;;;;6214826;23;20198;-74
2021/12/11 02:01:36;;;;;;;8.03;2.30;;;5.80;99.90;;;;;;6214757;23;20169;-76
2021/12/11 02:04:05;;;;;;;10.13;2.83;;;5.80;99.90;;;;;;6214538;23;20633;-74
2021/12/11 02:06:35;;;;;;;7.00;2.70;;;5.90;99.90;;;;;;6214974;23;20186;-79
2021/12/11 02:09:11;;;;;;;9.20;2.90;;;5.90;99.90;;;;;;6214809;23;20898;-77
2021/12/11 02:11:38;;;;;;;9.30;2.77;;;5.90;99.90;;;;;;6215315;23;20177;-79
2021/12/11 02:14:14;;;;;;;9.90;2.73;;;5.90;99.90;;;;;;6215207;23;20163;-76
2021/12/11 02:16:44;;;;;;;8.23;2.53;;;6.00;99.90;;;;;;6218282;23;20190;-77
2021/12/11 02:19:15;;;;;;;12.30;3.40;;;6.00;99.90;;;;;;6217286;23;20607;-78
2021/12/11 02:21:54;;;;;;;9.50;3.10;;;6.00;99.90;;;;;;6216664;23;20189;-85
2021/12/11 02:24:24;;;;;;;8.13;4.03;;;6.00;99.90;;;;;;6224877;23;20677;-74
2021/12/11 02:26:54;;;;;;;13.67;3.80;;;6.10;99.90;;;;;;6223054;23;20220;-79
2021/12/11 02:29:25;;;;;;;11.47;3.67;;;6.10;99.90;;;;;;6221236;23;20163;-78
2021/12/11 02:31:56;;;;;;;10.50;3.60;;;6.10;99.90;;;;;;6217155;23;20167;-85
2021/12/11 02:34:28;;;;;;;9.90;4.30;;;6.10;99.90;;;;;;6219765;23;20177;-79
2021/12/11 02:37:01;;;;;;;16.73;5.40;;;6.20;99.90;;;;;;6219619;23;20195;-82
2021/12/11 02:39:35;;;;;;;15.90;5.27;;;6.20;99.90;;;;;;6217956;23;20167;-89
2021/12/11 02:42:12;;;;;;;16.53;5.53;;;6.10;99.90;;;;;;6216808;23;20171;-86
2021/12/11 02:44:42;;;;;;;15.87;6.30;;;6.20;99.90;;;;;;6217992;23;20198;-78
2021/12/11 02:47:13;;;;;;;18.63;5.50;;;6.20;99.90;;;;;;6216839;23;20167;-74
2021/12/11 02:49:44;;;;;;;13.00;5.40;;;6.10;99.90;;;;;;6217325;23;20170;-88
2021/12/11 02:52:17;;;;;;;21.47;6.07;;;6.10;99.90;;;;;;6217353;23;20175;-78
2021/12/11 02:54:47;;;;;;;22.40;4.93;;;6.20;99.90;;;;;;6217506;23;20162;-81
2021/12/11 02:57:18;;;;;;;20.63;6.03;;;6.10;99.90;;;;;;6215902;23;20865;-79
2021/12/11 02:59:46;;;;;;;20.83;5.07;;;6.20;99.90;;;;;;6217150;23;20170;-75
2021/12/11 03:02:18;;;;;;;17.23;4.33;;;6.30;99.90;;;;;;6217076;23;20163;-74
2021/12/11 03:04:51;;;;;;;20.33;4.60;;;6.10;99.90;;;;;;6217254;23;20170;-87
2021/12/11 03:07:24;;;;;;;21.83;4.17;;;6.10;99.90;;;;;;6217464;23;20215;-88
2021/12/11 03:09:55;;;;;;;19.40;3.90;;;6.00;99.90;;;;;;6217335;23;20242;-74
2021/12/11 03:12:24;;;;;;;19.80;4.17;;;6.10;99.90;;;;;;6218048;23;20169;-88
2021/12/11 03:14:51;;;;;;;18.87;3.90;;;6.00;99.90;;;;;;6216289;23;20220;-81
2021/12/11 03:17:20;;;;;;;23.53;3.40;;;6.10;99.90;;;;;;6216400;23;20175;-84
2021/12/11 03:19:52;;;;;;;27.00;4.43;;;6.00;99.90;;;;;;6217063;23;20495;-86
2021/12/11 03:22:27;;;;;;;17.27;4.13;;;6.00;99.90;;;;;;6216688;23;20638;-81
2021/12/11 03:24:55;;;;;;;25.33;5.00;;;6.10;99.90;;;;;;6214084;23;20391;-74
2021/12/11 03:27:23;;;;;;;12.23;3.63;;;6.20;99.90;;;;;;6215657;23;20501;-80
2021/12/11 03:29:50;;;;;;;19.30;3.53;;;6.20;99.90;;;;;;6215811;23;20512;-83
2021/12/11 03:32:24;;;;;;;23.93;3.80;;;6.20;99.90;;;;;;6216512;23;20174;-84
2021/12/11 03:34:51;;;;;;;26.33;4.63;;;6.20;99.90;;;;;;6216734;23;20166;-79
2021/12/11 03:37:23;;;;;;;19.93;4.30;;;6.40;99.90;;;;;;6217489;23;20166;-84
2021/12/11 03:39:54;;;;;;;22.07;3.97;;;6.50;99.90;;;;;;6217059;23;20163;-81
2021/12/11 03:42:23;;;;;;;21.17;4.40;;;6.40;99.90;;;;;;6217484;23;20190;-74
2021/12/11 03:45:01;;;;;;;22.33;4.03;;;6.20;99.90;;;;;;6216069;23;20202;-84
2021/12/11 03:47:33;;;;;;;29.37;4.63;;;6.10;99.90;;;;;;6217208;23;20171;-83
2021/12/11 03:50:01;;;;;;;23.67;3.57;;;6.10;99.90;;;;;;6217234;23;20201;-85
2021/12/11 03:52:32;;;;;;;25.05;4.95;;;6.20;99.90;;;;;;6215976;23;20442;-84
2021/12/11 03:55:00;;;;;;;22.93;3.83;;;6.40;99.90;;;;;;6217399;23;20163;-84
2021/12/11 03:57:30;;;;;;;20.20;4.10;;;6.50;99.90;;;;;;6217010;23;20620;-85
2021/12/11 04:00:05;;;;;;;19.20;3.60;;;6.40;99.90;;;;;;6216748;23;20163;-87
2021/12/11 04:02:34;;;;;;;20.90;3.60;;;6.30;99.90;;;;;;6216950;23;20187;-87
2021/12/11 04:05:05;;;;;;;19.50;3.80;;;6.20;99.90;;;;;;6216057;23;20210;-84
2021/12/11 04:07:38;;;;;;;22.43;3.70;;;6.20;99.90;;;;;;6216041;23;20163;-74
2021/12/11 04:10:06;;;;;;;16.27;3.50;;;6.10;99.90;;;;;;6216365;23;20169;-81
2021/12/11 04:12:33;;;;;;;28.10;4.00;;;6.00;99.90;;;;;;6215892;23;20186;-85
2021/12/11 04:15:00;;;;;;;18.30;3.40;;;6.00;99.90;;;;;;6215419;23;20649;-83
2021/12/11 04:17:29;;;;;;;22.17;3.83;;;5.90;99.90;;;;;;6216272;23;20197;-76
2021/12/11 04:19:59;;;;;;;25.83;4.38;;;5.90;99.90;;;;;;6214324;23;20391;-75
2021/12/11 04:22:27;;;;;;;16.27;3.43;;;5.90;99.90;;;;;;6216613;23;20174;-76
2021/12/11 04:24:55;;;;;;;20.53;4.00;;;5.90;99.90;;;;;;6216730;23;20178;-79
2021/12/11 04:27:24;;;;;;;25.83;3.53;;;5.90;99.90;;;;;;6216627;23;20167;-74
2021/12/11 04:29:52;;;;;;;24.70;3.87;;;5.90;99.90;;;;;;6216179;23;20167;-74
2021/12/11 04:32:22;;;;;;;23.57;3.47;;;5.80;99.90;;;;;;6216391;23;20167;-86
2021/12/11 04:34:49;;;;;;;29.13;4.37;;;5.70;99.90;;;;;;6215167;23;20493;-78
2021/12/11 04:37:22;;;;;;;20.10;3.90;;;5.70;99.90;;;;;;6218159;23;20195;-79
2021/12/11 04:39:54;;;;;;;19.20;3.33;;;5.70;99.90;;;;;;6216259;23;20171;-83
2021/12/11 04:42:33;;;;;;;15.07;3.63;;;5.60;99.90;;;;;;6215914;23;20171;-78
2021/12/11 04:45:00;;;;;;;18.40;2.93;;;5.60;99.90;;;;;;6215637;23;20256;-73
2021/12/11 04:47:35;;;;;;;21.10;3.67;;;5.60;99.90;;;;;;6216081;23;20173;-79
2021/12/11 04:50:11;;;;;;;23.15;4.68;;;5.70;99.90;;;;;;6216621;23;20400;-82
2021/12/11 04:52:50;;;;;;;19.70;4.20;;;5.70;99.90;;;;;;6217777;23;20174;-85
2021/12/11 04:55:29;;;;;;;26.73;4.13;;;5.70;99.90;;;;;;6216470;23;20531;-79
2021/12/11 04:58:13;;;;;;;19.87;3.27;;;5.60;99.90;;;;;;6215920;23;20174;-73
2021/12/11 05:00:55;;;;;;;15.67;3.40;;;5.60;99.90;;;;;;6215025;23;20241;-74
2021/12/11 05:06:20;;;;;;;18.67;3.73;;;5.50;99.90;;;;;;6215266;23;20233;-73
2021/12/11 05:09:16;;;;;;;25.50;3.77;;;5.50;99.90;;;;;;6215288;23;20229;-74
2021/12/11 05:11:52;;;;;;;16.63;3.70;;;5.50;99.90;;;;;;6214391;23;20637;-74
2021/12/11 05:14:23;;;;;;;18.13;3.20;;;5.40;99.90;;;;;;6215281;23;20178;-73
2021/12/11 05:16:50;;;;;;;18.10;4.10;;;5.50;99.90;;;;;;6215009;23;20201;-74
2021/12/11 05:19:17;;;;;;;16.83;4.00;;;5.40;99.90;;;;;;6214581;23;20863;-74
2021/12/11 05:21:44;;;;;;;19.50;4.30;;;5.50;99.90;;;;;;6215058;23;20236;-73
2021/12/11 05:24:15;;;;;;;23.47;3.97;;;5.40;99.90;;;;;;6215532;23;20169;-74
2021/12/11 05:26:42;;;;;;;21.63;3.23;;;5.40;99.90;;;;;;6214826;23;20213;-72
2021/12/11 05:29:09;;;;;;;21.43;3.53;;;5.50;99.90;;;;;;6215202;23;20167;-73
2021/12/11 05:31:38;;;;;;;20.67;3.70;;;5.50;99.90;;;;;;6215161;23;20174;-74
2021/12/11 05:34:05;;;;;;;24.83;3.73;;;5.30;99.90;;;;;;6214133;23;20598;-73
2021/12/11 05:36:35;;;;;;;18.43;3.63;;;5.40;99.90;;;;;;6214814;23;20201;-76
2021/12/11 05:39:07;;;;;;;25.47;3.47;;;5.30;99.90;;;;;;6215362;23;20540;-76
2021/12/11 05:41:34;;;;;;;15.33;2.73;;;5.20;99.90;;;;;;6214927;23;20174;-77
2021/12/11 05:44:01;;;;;;;14.80;3.40;;;5.10;99.90;;;;;;6215337;23;20198;-76
2021/12/11 05:46:28;;;;;;;19.23;3.33;;;5.10;99.90;;;;;;6215430;23;20167;-75
2021/12/11 05:48:56;;;;;;;14.90;3.13;;;5.00;99.90;;;;;;6214730;23;20400;-75
2021/12/11 05:51:24;;;;;;;13.47;2.77;;;5.00;99.90;;;;;;6214820;23;20187;-75
2021/12/11 05:53:54;;;;;;;16.97;3.73;;;4.90;99.90;;;;;;6214705;23;20175;-76
2021/12/11 05:56:23;;;;;;;28.93;3.60;;;4.90;99.90;;;;;;6214579;23;20961;-75
2021/12/11 05:58:57;;;;;;;19.83;3.43;;;4.90;99.90;;;;;;6215027;23;20245;-75
2021/12/11 06:01:29;;;;;;;23.50;4.57;;;4.90;99.90;;;;;;6214257;23;20769;-75
2021/12/11 06:03:59;;;;;;;15.77;3.70;;;4.90;99.90;;;;;;6213873;23;20167;-75
2021/12/11 06:06:26;;;;;;;18.17;3.67;;;4.90;99.90;;;;;;6213440;23;20170;-74
2021/12/11 06:08:53;;;;;;;18.53;4.13;;;4.80;99.90;;;;;;6215990;23;20410;-75
2021/12/11 06:11:20;;;;;;;19.93;4.57;;;4.90;99.90;;;;;;6216036;23;20702;-73
2021/12/11 06:13:47;;;;;;;14.20;3.93;;;4.80;99.90;;;;;;6216865;23;20396;-74
2021/12/11 06:16:15;;;;;;;21.20;3.87;;;4.80;99.90;;;;;;6216646;23;20190;-74
2021/12/11 06:18:43;;;;;;;18.33;3.53;;;4.70;99.90;;;;;;6216104;23;20442;-77
2021/12/11 06:21:11;;;;;;;15.87;3.23;;;4.70;99.90;;;;;;6216523;23;20412;-73
2021/12/11 06:23:38;;;;;;;17.40;3.80;;;4.60;99.90;;;;;;6216177;23;20892;-74
2021/12/11 06:26:05;;;;;;;22.23;4.60;;;4.60;99.90;;;;;;6216498;23;20875;-74
2021/12/11 06:28:35;;;;;;;25.50;3.53;;;4.50;99.90;;;;;;6216704;23;20443;-74
2021/12/11 06:31:03;;;;;;;21.60;3.90;;;4.50;99.90;;;;;;6216378;23;20462;-74
2021/12/11 06:33:31;;;;;;;19.13;3.57;;;4.50;99.90;;;;;;6216820;23;20463;-73
2021/12/11 06:36:01;;;;;;;23.03;3.93;;;4.40;99.90;;;;;;6215318;23;20393;-73
2021/12/11 06:38:33;;;;;;;16.80;4.00;;;4.40;99.90;;;;;;6215929;23;20414;-74
2021/12/11 06:41:01;;;;;;;15.33;3.97;;;4.40;99.90;;;;;;6216014;23;20389;-73
2021/12/11 06:43:28;;;;;;;16.83;4.00;;;4.40;99.90;;;;;;6216178;23;20885;-76
2021/12/11 06:45:55;;;;;;;18.00;4.00;;;4.40;99.90;;;;;;6216100;23;20864;-75
2021/12/11 06:48:23;;;;;;;20.77;4.23;;;4.40;99.90;;;;;;6216399;23;20895;-73
2021/12/11 06:50:51;;;;;;;21.70;4.50;;;4.40;99.90;;;;;;6216289;23;20393;-75
2021/12/11 06:53:23;;;;;;;19.53;4.53;;;4.30;99.90;;;;;;6215884;23;20414;-83
2021/12/11 06:55:52;;;;;;;18.00;4.07;;;4.30;99.90;;;;;;6216431;23;20389;-79
2021/12/11 06:58:19;;;;;;;23.00;4.60;;;4.30;99.90;;;;;;6216493;23;20403;-74
2021/12/11 07:00:46;;;;;;;19.13;4.50;;;4.30;99.90;;;;;;6216397;23;20470;-73
2021/12/11 07:03:13;;;;;;;18.33;4.07;;;4.30;99.90;;;;;;6215876;23;20884;-73
2021/12/11 07:05:41;;;;;;;21.37;4.40;;;4.30;99.90;;;;;;6215423;23;20392;-76
2021/12/11 07:08:12;;;;;;;18.80;4.33;;;4.30;99.90;;;;;;6215757;23;20480;-73
2021/12/11 07:10:40;;;;;;;23.73;4.17;;;4.30;99.90;;;;;;6215855;23;20398;-73
2021/12/11 07:13:10;;;;;;;10.80;3.80;;;4.30;99.90;;;;;;6215770;23;20930;-74
2021/12/11 07:15:37;;;;;;;17.50;4.67;;;4.30;99.90;;;;;;6216295;23;20381;-75
2021/12/11 07:18:05;;;;;;;21.70;4.90;;;4.40;99.90;;;;;;6214848;23;21111;-74
2021/12/11 07:20:32;;;;;;;21.87;4.70;;;4.40;99.90;;;;;;6215802;23;20396;-74
2021/12/11 07:23:00;;;;;;;19.00;4.80;;;4.30;99.90;;;;;;6215041;23;20396;-74
2021/12/11 07:25:30;;;;;;;13.97;4.37;;;4.30;99.90;;;;;;6215885;23;20167;-76
2021/12/11 07:28:01;;;;;;;15.63;4.40;;;4.40;99.90;;;;;;6215834;23;20389;-73
2021/12/11 07:30:30;;;;;;;15.37;4.43;;;4.30;99.90;;;;;;6215813;23;20400;-77
2021/12/11 07:33:01;;;;;;;18.00;4.43;;;4.40;99.90;;;;;;6216079;23;20403;-74
2021/12/11 07:35:28;;;;;;;21.30;4.97;;;4.40;99.90;;;;;;6216101;23;20389;-74
2021/12/11 07:37:55;;;;;;;20.47;5.13;;;4.50;99.90;;;;;;6215313;23;20455;-74
2021/12/11 07:40:25;;;;;;;13.87;4.90;;;4.50;99.90;;;;;;6215920;23;20392;-76
2021/12/11 07:42:52;;;;;;;16.50;4.90;;;4.50;99.90;;;;;;6216337;23;20435;-80
2021/12/11 07:45:20;;;;;;;17.73;4.80;;;4.50;99.90;;;;;;6217186;23;20388;-89
2021/12/11 07:47:49;;;;;;;14.70;4.67;;;4.50;99.90;;;;;;6216968;23;20397;-77
2021/12/11 07:50:16;;;;;;;22.70;5.17;;;4.40;99.90;;;;;;6216292;23;20388;-77
2021/12/11 07:52:46;;;;;;;21.87;4.80;;;4.40;99.90;;;;;;6216955;23;20419;-87
2021/12/11 07:55:19;;;;;;;15.17;4.37;;;4.30;99.90;;;;;;6216861;23;20440;-82
2021/12/11 07:57:53;;;;;;;28.17;5.73;;;4.40;99.90;;;;;;6216848;23;20439;-86
2021/12/11 08:00:27;;;;;;;28.87;5.00;;;4.40;99.90;;;;;;6218147;23;20446;-88
2021/12/11 08:02:57;;;;;;;18.53;4.90;;;4.40;99.90;;;;;;6216793;23;20388;-87
2021/12/11 08:05:29;;;;;;;17.73;5.13;;;4.40;99.90;;;;;;6217065;23;20392;-88
2021/12/11 08:08:01;;;;;;;18.33;4.90;;;4.30;99.90;;;;;;6217309;23;20861;-88
2021/12/11 08:10:35;;;;;;;19.83;4.53;;;4.30;99.90;;;;;;6218124;23;20384;-87
2021/12/11 08:13:04;;;;;;;25.47;6.00;;;4.30;99.90;;;;;;6217651;23;20392;-79
2021/12/11 08:15:34;;;;;;;22.50;5.77;;;4.30;99.90;;;;;;6217837;23;20163;-86
2021/12/11 08:18:04;;;;;;;18.57;6.70;;;4.30;99.90;;;;;;6217651;23;20769;-85
2021/12/11 08:20:40;;;;;;;17.90;5.63;;;4.30;99.90;;;;;;6217849;23;20412;-88
2021/12/11 08:23:09;;;;;;;17.27;5.63;;;4.30;99.90;;;;;;6217484;23;20490;-89
2021/12/11 08:25:43;;;;;;;23.20;6.17;;;4.30;99.90;;;;;;6216952;23;20393;-89
2021/12/11 08:28:16;;;;;;;26.60;5.60;;;4.20;99.90;;;;;;6217216;23;20396;-89
2021/12/11 08:30:45;;;;;;;23.10;6.37;;;4.20;99.90;;;;;;6216789;23;20558;-88
2021/12/11 08:33:20;;;;;;;20.35;7.28;;;4.10;99.90;;;;;;6215863;23;20449;-88
2021/12/11 08:35:48;;;;;;;16.40;6.20;;;4.20;99.90;;;;;;6216851;23;20167;-88
2021/12/11 08:38:18;;;;;;;25.03;6.53;;;4.10;99.90;;;;;;6216554;23;21275;-88
2021/12/11 08:40:47;;;;;;;21.13;6.23;;;4.20;99.90;;;;;;6216900;23;20400;-88
2021/12/11 08:43:16;;;;;;;23.53;6.63;;;4.20;99.90;;;;;;6216773;23;20428;-90
2021/12/11 08:46:09;;;;;;;18.10;6.80;;;4.30;99.90;;;;;;6216468;23;20412;-88
2021/12/11 08:48:48;;;;;;;24.37;6.93;;;4.20;99.90;;;;;;6215841;23;20407;-88
2021/12/11 08:51:19;;;;;;;22.60;7.27;;;4.20;99.90;;;;;;6216416;23;20816;-90
2021/12/11 08:53:49;;;;;;;20.23;7.80;;;4.30;99.90;;;;;;6216880;23;20840;-89
2021/12/11 08:56:18;;;;;;;17.87;6.57;;;4.30;99.90;;;;;;6215965;23;20423;-90
2021/12/11 08:58:48;;;;;;;24.03;7.03;;;4.40;99.90;;;;;;6216242;23;20444;-86
2021/12/11 09:01:23;;;;;;;19.37;6.70;;;4.40;99.90;;;;;;6216298;23;20393;-89
2021/12/11 09:03:59;;;;;;;20.50;7.20;;;4.40;99.90;;;;;;6216139;23;20415;-89
2021/12/11 09:06:31;;;;;;;24.30;7.88;;;4.60;99.90;;;;;;6215945;23;20422;-84
2021/12/11 09:09:05;;;;;;;19.37;6.97;;;4.70;99.90;;;;;;6216779;23;20170;-86
2021/12/11 09:11:37;;;;;;;17.03;6.50;;;4.80;99.90;;;;;;6216042;23;20179;-88
2021/12/11 09:14:08;;;;;;;19.57;7.10;;;4.80;99.90;;;;;;6217220;23;20222;-89
2021/12/11 09:16:42;;;;;;;23.83;6.30;;;4.80;99.90;;;;;;6217019;23;20170;-87
2021/12/11 09:19:13;;;;;;;21.77;9.40;;;4.90;99.90;;;;;;6216827;23;20189;-88
2021/12/11 09:21:51;;;;;;;19.43;7.33;;;4.90;99.90;;;;;;6216711;23;20189;-89
2021/12/11 09:24:25;;;;;;;22.27;7.50;;;4.90;99.90;;;;;;6216223;23;20170;-80
2021/12/11 09:26:57;;;;;;;17.07;6.47;;;4.90;99.90;;;;;;6215725;23;20220;-74
2021/12/11 09:29:29;;;;;;;420.53;152.07;;;5.00;99.90;;;;;;6215030;23;20177;-75
2021/12/11 09:32:09;;;;;;;26.40;8.60;;;5.00;99.90;;;;;;6214181;23;20185;-79
2021/12/11 09:34:41;;;;;;;21.53;8.17;;;5.10;99.90;;;;;;6215119;23;20184;-82
2021/12/11 09:37:09;;;;;;;13.97;6.03;;;5.10;99.90;;;;;;6215178;23;20524;-72
2021/12/11 09:39:39;;;;;;;15.13;5.87;;;5.10;99.90;;;;;;6215418;23;20603;-75
2021/12/11 09:42:07;;;;;;;17.30;5.77;;;5.20;99.90;;;;;;6215838;23;20166;-74
2021/12/11 09:44:38;;;;;;;18.97;5.90;;;5.20;99.90;;;;;;6217851;23;20202;-79
2021/12/11 09:47:09;;;;;;;24.30;6.03;;;5.10;99.90;;;;;;6217370;23;20171;-74
2021/12/11 09:49:38;;;;;;;18.20;5.90;;;5.10;99.90;;;;;;6217450;23;20399;-73
2021/12/11 09:52:15;;;;;;;18.50;6.13;;;5.10;99.90;;;;;;6217391;23;20163;-76
2021/12/11 09:54:45;;;;;;;20.87;6.10;;;5.10;99.90;;;;;;6218076;23;20250;-80
2021/12/11 09:57:15;;;;;;;18.63;6.30;;;5.10;99.90;;;;;;6217519;23;20438;-88
2021/12/11 09:59:46;;;;;;;17.50;5.53;;;5.10;99.90;;;;;;6218666;23;20167;-76
2021/12/11 10:02:17;;;;;;;19.57;5.93;;;5.20;99.90;;;;;;6217655;23;20185;-86
2021/12/11 10:04:57;;;;;;;16.70;6.07;;;5.20;99.90;;;;;;6218588;23;20167;-83
2021/12/11 10:07:32;;;;;;;21.67;5.97;;;5.20;99.90;;;;;;6217603;23;20202;-77
2021/12/11 10:10:16;;;;;;;16.17;5.77;;;5.20;99.90;;;;;;6218044;23;20194;-77
2021/12/11 10:12:46;;;;;;;20.87;6.07;;;5.20;99.90;;;;;;6217375;23;20166;-74
2021/12/11 10:15:19;;;;;;;21.30;6.97;;;5.20;99.90;;;;;;6216595;23;20422;-80
2021/12/11 10:17:49;;;;;;;20.13;6.43;;;5.30;99.90;;;;;;6216972;23;20668;-76
2021/12/11 10:20:21;;;;;;;23.10;6.27;;;5.30;99.90;;;;;;6216850;23;20708;-78
2021/12/11 10:22:53;;;;;;;17.13;6.53;;;5.40;99.90;;;;;;6216965;23;20167;-74
2021/12/11 10:25:25;;;;;;;15.90;6.23;;;5.40;99.90;;;;;;6216974;23;20167;-74
2021/12/11 10:27:52;;;;;;;19.10;6.50;;;5.40;99.90;;;;;;6217245;23;20166;-76
2021/12/11 10:30:25;;;;;;;18.23;5.80;;;5.40;99.90;;;;;;6217344;23;20171;-86
2021/12/11 10:32:53;;;;;;;18.90;6.00;;;5.50;99.90;;;;;;6217019;23;20178;-73
2021/12/11 10:35:25;;;;;;;16.37;6.43;;;5.50;99.90;;;;;;6217105;23;20170;-77
2021/12/11 10:37:52;;;;;;;16.13;6.33;;;5.60;99.90;;;;;;6217341;23;20197;-74
2021/12/11 10:40:24;;;;;;;19.10;6.27;;;5.70;99.90;;;;;;6217022;23;20169;-74
2021/12/11 10:42:56;;;;;;;19.27;6.37;;;5.70;99.90;;;;;;6216563;23;20217;-74
2021/12/11 10:45:26;;;;;;;17.33;5.60;;;5.70;99.90;;;;;;6216779;23;20167;-74
2021/12/11 10:47:56;;;;;;;18.13;5.37;;;5.80;99.90;;;;;;6217137;23;20174;-78
2021/12/11 10:50:27;;;;;;;19.03;5.97;;;6.00;99.90;;;;;;6216834;23;20158;-81
2021/12/11 10:52:54;;;;;;;16.80;5.67;;;6.10;99.90;;;;;;6217046;23;20599;-80
2021/12/11 10:55:28;;;;;;;17.70;5.73;;;6.10;99.90;;;;;;6216376;23;20163;-79
2021/12/11 10:57:57;;;;;;;22.87;7.20;;;6.20;99.90;;;;;;6216731;23;20197;-80
2021/12/11 11:00:29;;;;;;;15.87;6.30;;;6.20;99.90;;;;;;6216871;23;20174;-78
2021/12/11 11:02:56;;;;;;;15.20;6.23;;;6.20;99.90;;;;;;6216911;23;20531;-79
2021/12/11 11:05:25;;;;;;;19.30;6.80;;;6.20;99.90;;;;;;6216890;23;20162;-75
2021/12/11 11:07:53;;;;;;;17.63;5.77;;;6.20;99.90;;;;;;6217864;23;20173;-80
2021/12/11 11:10:24;;;;;;;16.10;7.23;;;6.30;99.90;;;;;;6217388;23;20174;-76
2021/12/11 11:12:54;;;;;;;14.13;6.70;;;6.30;99.90;;;;;;6216927;23;20174;-85
2021/12/11 11:15:27;;;;;;;15.20;5.90;;;6.30;99.90;;;;;;6217630;23;20185;-88
2021/12/11 11:17:56;;;;;;;13.80;5.03;;;6.30;99.90;;;;;;6217033;23;20197;-84
2021/12/11 11:20:26;;;;;;;16.30;5.87;;;6.40;99.90;;;;;;6216981;23;20638;-85
2021/12/11 11:22:53;;;;;;;16.27;6.17;;;6.40;99.90;;;;;;6217034;23;20649;-80
2021/12/11 11:25:25;;;;;;;18.50;6.82;;;6.40;99.90;;;;;;6215913;23;20398;-85
2021/12/11 11:27:58;;;;;;;22.97;8.67;;;6.50;99.90;;;;;;6217401;23;20163;-80
2021/12/11 11:30:32;;;;;;;17.87;5.87;;;6.60;99.90;;;;;;6216961;23;20163;-84
2021/12/11 11:32:59;;;;;;;15.33;6.03;;;6.50;99.90;;;;;;6217652;23;20256;-81
2021/12/11 11:35:31;;;;;;;15.87;6.00;;;6.60;99.90;;;;;;6216948;23;20163;-83
2021/12/11 11:38:04;;;;;;;17.43;5.80;;;6.70;99.90;;;;;;6217234;23;20191;-82
2021/12/11 11:40:36;;;;;;;18.87;6.67;;;6.80;99.90;;;;;;6217044;23;20167;-88
2021/12/11 11:43:07;;;;;;;18.13;5.40;;;6.80;99.90;;;;;;6216508;23;20685;-79
2021/12/11 11:45:38;;;;;;;19.80;5.50;;;6.80;99.90;;;;;;6216583;23;20170;-85
2021/12/11 11:48:06;;;;;;;13.37;4.63;;;6.90;99.90;;;;;;6216167;23;20166;-84
2021/12/11 11:50:40;;;;;;;15.93;5.90;;;6.90;99.90;;;;;;6216145;23;20445;-84
2021/12/11 11:53:07;;;;;;;16.10;5.27;;;6.90;99.90;;;;;;6217026;23;20161;-83
2021/12/11 11:55:46;;;;;;;11.80;5.13;;;6.90;99.90;;;;;;6216600;23;20171;-78
2021/12/11 11:58:13;;;;;;;13.17;5.50;;;7.00;99.90;;;;;;6214968;23;20205;-82
2021/12/11 12:00:47;;;;;;;12.43;4.63;;;7.10;99.90;;;;;;6216553;23;20169;-80
2021/12/11 12:03:18;;;;;;;16.73;5.20;;;7.10;99.90;;;;;;6216418;23;20178;-81
2021/12/11 12:05:48;;;;;;;12.87;5.10;;;7.20;99.90;;;;;;6216249;23;20202;-86
2021/12/11 12:08:16;;;;;;;20.37;5.50;;;7.20;99.90;;;;;;6221706;23;20619;-80
2021/12/11 12:10:45;;;;;;;14.03;4.60;;;7.30;99.90;;;;;;6220955;23;20229;-77
2021/12/11 12:13:14;;;;;;;14.97;5.13;;;7.40;99.90;;;;;;6218405;23;20189;-82
2021/12/11 12:15:50;;;;;;;16.73;4.40;;;7.30;99.90;;;;;;6218237;23;20493;-87
2021/12/11 12:18:18;;;;;;;16.20;4.73;;;7.20;99.90;;;;;;6216636;23;20658;-75
2021/12/11 12:20:48;;;;;;;16.57;5.00;;;7.30;99.90;;;;;;6217144;23;20186;-78
2021/12/11 12:23:15;;;;;;;14.80;6.13;;;7.30;99.90;;;;;;6218637;23;20169;-86
2021/12/11 12:25:45;;;;;;;14.50;4.30;;;7.30;99.90;;;;;;6217907;23;20181;-73
2021/12/11 12:28:12;;;;;;;25.23;6.67;;;7.40;99.90;;;;;;6217238;23;20162;-84
2021/12/11 12:30:46;;;;;;;22.00;4.47;;;7.50;99.90;;;;;;6218663;23;20162;-78
2021/12/11 12:33:19;;;;;;;13.83;4.73;;;7.50;99.90;;;;;;6217364;23;20201;-81
2021/12/11 12:35:47;;;;;;;13.83;3.90;;;7.50;99.90;;;;;;6216223;23;20198;-80
2021/12/11 12:38:17;;;;;;;13.70;4.30;;;7.30;99.90;;;;;;6216460;23;20187;-78
2021/12/11 12:40:54;;;;;;;16.23;4.87;;;7.40;99.90;;;;;;6216319;23;20165;-87
2021/12/11 12:46:09;;;;;;;16.13;4.63;;;7.40;99.90;;;;;;6215730;23;20177;-86
2021/12/11 12:48:36;;;;;;;13.57;3.93;;;7.50;99.90;;;;;;6216693;23;20166;-80
2021/12/11 12:51:12;;;;;;;15.67;4.50;;;7.60;99.90;;;;;;6216952;23;20167;-86
2021/12/11 12:53:44;;;;;;;18.70;4.80;;;7.60;99.90;;;;;;6217679;23;20166;-86
2021/12/11 12:56:15;;;;;;;17.20;4.37;;;7.70;99.90;;;;;;6216474;23;20163;-89
2021/12/11 12:58:47;;;;;;;10.27;3.90;;;7.70;99.90;;;;;;6218245;23;20261;-91
2021/12/11 13:01:22;;;;;;;16.03;4.23;;;7.70;99.90;;;;;;6216636;23;20163;-87
2021/12/11 13:03:51;;;;;;;12.80;4.37;;;7.70;99.90;;;;;;6216380;23;20185;-90
2021/12/11 13:06:21;;;;;;;11.77;3.77;;;7.50;99.90;;;;;;6216430;23;20626;-89
2021/12/11 13:08:54;;;;;;;12.43;4.27;;;7.50;99.90;;;;;;6217045;23;20178;-87
2021/12/11 13:11:30;;;;;;;17.23;5.05;;;7.60;99.90;;;;;;6215822;23;20391;-88